Bindloss, Canada
Current Conditions -  °F | °C
As of 3:00 AM on Monday 26 Jan 2015 (Local Time) from CYXH Reporting Station
Clear Clear  
Wind Chill: 30°   Ceiling: Unl
Heat Index: 30°   Visibility: 9mi
Dew Point: 30°   Wind: 3mph
Humidity: 100%   Direction: 200°SSW
Pressure: 29.92"   Gusts: NA
Location:  50.88°N, 110.27°W
Report Text: CYXH 261000Z AUTO 20003KT 9SM CLR M01/M01 A2992 RMK SLP148
Loading
Personal Weather Stations






























Interactive Weather Map New forecast layout! Learn more

10-Day Weather Forecast

Advertisements
Track Severe Weather on mobile